sensor_id;sensor_type;location;lat;lon;timestamp;P1;durP1;ratioP1;P2;durP2;ratioP2
72684;SDS011;61365;52.162;4.500;2022-10-31T00:01:25;4.03;;;2.10;;
72684;SDS011;61365;52.162;4.500;2022-10-31T00:03:59;5.93;;;2.33;;
72684;SDS011;61365;52.162;4.500;2022-10-31T00:06:25;4.93;;;2.05;;
72684;SDS011;61365;52.162;4.500;2022-10-31T00:08:54;7.75;;;2.63;;
72684;SDS011;61365;52.162;4.500;2022-10-31T00:11:23;6.45;;;1.83;;
72684;SDS011;61365;52.162;4.500;2022-10-31T00:13:50;4.45;;;1.80;;
72684;SDS011;61365;52.162;4.500;2022-10-31T00:16:18;3.92;;;1.70;;
72684;SDS011;61365;52.162;4.500;2022-10-31T00:18:51;5.20;;;2.13;;
72684;SDS011;61365;52.162;4.500;2022-10-31T00:21:19;9.02;;;2.40;;
72684;SDS011;61365;52.162;4.500;2022-10-31T00:23:46;5.82;;;1.70;;
72684;SDS011;61365;52.162;4.500;2022-10-31T00:26:13;4.60;;;2.17;;
72684;SDS011;61365;52.162;4.500;2022-10-31T00:28:41;5.68;;;1.83;;
72684;SDS011;61365;52.162;4.500;2022-10-31T00:31:08;12.98;;;2.58;;
72684;SDS011;61365;52.162;4.500;2022-10-31T00:33:37;3.60;;;1.95;;
72684;SDS011;61365;52.162;4.500;2022-10-31T00:36:07;6.20;;;2.33;;
72684;SDS011;61365;52.162;4.500;2022-10-31T00:38:37;8.63;;;2.10;;
72684;SDS011;61365;52.162;4.500;2022-10-31T00:41:03;8.52;;;2.58;;
72684;SDS011;61365;52.162;4.500;2022-10-31T00:43:30;8.63;;;2.17;;
72684;SDS011;61365;52.162;4.500;2022-10-31T00:45:56;4.75;;;2.10;;
72684;SDS011;61365;52.162;4.500;2022-10-31T00:48:22;4.47;;;1.80;;
72684;SDS011;61365;52.162;4.500;2022-10-31T00:50:49;3.17;;;1.95;;
72684;SDS011;61365;52.162;4.500;2022-10-31T00:53:15;5.13;;;2.10;;
72684;SDS011;61365;52.162;4.500;2022-10-31T00:55:41;5.18;;;2.35;;
72684;SDS011;61365;52.162;4.500;2022-10-31T00:58:08;3.83;;;2.10;;
72684;SDS011;61365;52.162;4.500;2022-10-31T01:00:34;4.25;;;2.22;;
72684;SDS011;61365;52.162;4.500;2022-10-31T01:03:00;4.15;;;2.38;;
72684;SDS011;61365;52.162;4.500;2022-10-31T01:05:27;7.32;;;2.55;;
72684;SDS011;61365;52.162;4.500;2022-10-31T01:07:53;3.88;;;2.13;;
72684;SDS011;61365;52.162;4.500;2022-10-31T01:10:20;3.30;;;1.90;;
72684;SDS011;61365;52.162;4.500;2022-10-31T01:12:47;5.80;;;2.70;;
72684;SDS011;61365;52.162;4.500;2022-10-31T01:15:16;5.45;;;2.80;;
72684;SDS011;61365;52.162;4.500;2022-10-31T01:17:47;6.65;;;3.10;;
72684;SDS011;61365;52.162;4.500;2022-10-31T01:20:15;10.27;;;3.10;;
72684;SDS011;61365;52.162;4.500;2022-10-31T01:22:43;6.10;;;3.20;;
72684;SDS011;61365;52.162;4.500;2022-10-31T01:25:09;5.20;;;2.92;;
72684;SDS011;61365;52.162;4.500;2022-10-31T01:27:36;7.38;;;3.55;;
72684;SDS011;61365;52.162;4.500;2022-10-31T01:30:03;8.60;;;3.70;;
72684;SDS011;61365;52.162;4.500;2022-10-31T01:32:31;6.78;;;3.38;;
72684;SDS011;61365;52.162;4.500;2022-10-31T01:34:57;6.63;;;3.75;;
72684;SDS011;61365;52.162;4.500;2022-10-31T01:37:24;8.48;;;3.50;;
72684;SDS011;61365;52.162;4.500;2022-10-31T01:39:50;8.00;;;3.95;;
72684;SDS011;61365;52.162;4.500;2022-10-31T01:42:18;6.93;;;3.85;;
72684;SDS011;61365;52.162;4.500;2022-10-31T01:44:55;6.90;;;3.67;;
72684;SDS011;61365;52.162;4.500;2022-10-31T01:47:29;7.90;;;4.07;;
72684;SDS011;61365;52.162;4.500;2022-10-31T01:50:11;7.32;;;3.28;;
72684;SDS011;61365;52.162;4.500;2022-10-31T01:52:50;5.80;;;3.63;;
72684;SDS011;61365;52.162;4.500;2022-10-31T01:55:20;6.32;;;3.85;;
72684;SDS011;61365;52.162;4.500;2022-10-31T01:57:59;9.13;;;3.50;;
72684;SDS011;61365;52.162;4.500;2022-10-31T02:00:32;9.48;;;4.35;;
72684;SDS011;61365;52.162;4.500;2022-10-31T02:02:59;8.68;;;4.22;;
72684;SDS011;61365;52.162;4.500;2022-10-31T02:05:26;7.32;;;4.13;;
72684;SDS011;61365;52.162;4.500;2022-10-31T02:08:06;6.32;;;4.00;;
72684;SDS011;61365;52.162;4.500;2022-10-31T02:10:42;9.88;;;4.10;;
72684;SDS011;61365;52.162;4.500;2022-10-31T02:13:10;7.07;;;4.45;;
72684;SDS011;61365;52.162;4.500;2022-10-31T02:15:39;9.48;;;4.13;;
72684;SDS011;61365;52.162;4.500;2022-10-31T02:18:08;8.05;;;4.45;;
72684;SDS011;61365;52.162;4.500;2022-10-31T02:23:54;8.13;;;4.82;;
72684;SDS011;61365;52.162;4.500;2022-10-31T02:40:33;9.80;;;4.65;;
72684;SDS011;61365;52.162;4.500;2022-10-31T02:46:00;8.43;;;5.20;;
72684;SDS011;61365;52.162;4.500;2022-10-31T02:48:37;12.10;;;6.32;;
72684;SDS011;61365;52.162;4.500;2022-10-31T02:51:09;10.68;;;5.80;;
72684;SDS011;61365;52.162;4.500;2022-10-31T02:53:37;9.23;;;5.70;;
72684;SDS011;61365;52.162;4.500;2022-10-31T02:56:15;10.55;;;5.65;;
72684;SDS011;61365;52.162;4.500;2022-10-31T02:58:45;11.65;;;6.07;;
72684;SDS011;61365;52.162;4.500;2022-10-31T03:01:38;9.77;;;6.32;;
72684;SDS011;61365;52.162;4.500;2022-10-31T03:05:09;10.75;;;6.03;;
72684;SDS011;61365;52.162;4.500;2022-10-31T03:07:57;10.20;;;5.60;;
72684;SDS011;61365;52.162;4.500;2022-10-31T03:10:45;7.10;;;4.47;;
72684;SDS011;61365;52.162;4.500;2022-10-31T03:13:48;9.70;;;5.97;;
72684;SDS011;61365;52.162;4.500;2022-10-31T03:21:52;10.60;;;5.55;;
72684;SDS011;61365;52.162;4.500;2022-10-31T03:24:36;7.60;;;5.13;;
72684;SDS011;61365;52.162;4.500;2022-10-31T03:27:05;10.25;;;5.40;;
72684;SDS011;61365;52.162;4.500;2022-10-31T03:29:36;10.80;;;5.30;;
72684;SDS011;61365;52.162;4.500;2022-10-31T03:32:07;8.65;;;5.30;;
72684;SDS011;61365;52.162;4.500;2022-10-31T03:34:41;10.38;;;5.60;;
72684;SDS011;61365;52.162;4.500;2022-10-31T03:37:11;9.30;;;5.70;;
72684;SDS011;61365;52.162;4.500;2022-10-31T03:39:43;8.65;;;5.68;;
72684;SDS011;61365;52.162;4.500;2022-10-31T03:42:18;8.52;;;5.20;;
72684;SDS011;61365;52.162;4.500;2022-10-31T03:47:29;9.43;;;6.13;;
72684;SDS011;61365;52.162;4.500;2022-10-31T03:49:56;10.95;;;6.40;;
72684;SDS011;61365;52.162;4.500;2022-10-31T03:55:42;8.90;;;5.68;;
72684;SDS011;61365;52.162;4.500;2022-10-31T03:58:35;10.48;;;6.22;;
72684;SDS011;61365;52.162;4.500;2022-10-31T04:01:11;14.45;;;6.38;;
72684;SDS011;61365;52.162;4.500;2022-10-31T04:03:43;11.10;;;6.35;;
72684;SDS011;61365;52.162;4.500;2022-10-31T04:06:12;11.38;;;6.30;;
72684;SDS011;61365;52.162;4.500;2022-10-31T04:08:44;9.25;;;5.93;;
72684;SDS011;61365;52.162;4.500;2022-10-31T04:11:18;13.15;;;6.85;;
72684;SDS011;61365;52.162;4.500;2022-10-31T04:13:54;10.73;;;6.53;;
72684;SDS011;61365;52.162;4.500;2022-10-31T04:16:22;11.57;;;6.57;;
72684;SDS011;61365;52.162;4.500;2022-10-31T04:18:51;11.18;;;6.72;;
72684;SDS011;61365;52.162;4.500;2022-10-31T04:21:18;9.50;;;6.50;;
72684;SDS011;61365;52.162;4.500;2022-10-31T04:23:44;12.95;;;8.00;;
72684;SDS011;61365;52.162;4.500;2022-10-31T04:26:11;11.35;;;6.72;;
72684;SDS011;61365;52.162;4.500;2022-10-31T04:28:38;14.25;;;7.25;;
72684;SDS011;61365;52.162;4.500;2022-10-31T04:31:05;10.75;;;6.63;;
72684;SDS011;61365;52.162;4.500;2022-10-31T04:33:31;16.08;;;7.20;;
72684;SDS011;61365;52.162;4.500;2022-10-31T04:35:57;10.15;;;6.53;;
72684;SDS011;61365;52.162;4.500;2022-10-31T04:38:23;13.45;;;7.82;;
72684;SDS011;61365;52.162;4.500;2022-10-31T04:40:50;13.00;;;7.90;;
72684;SDS011;61365;52.162;4.500;2022-10-31T04:43:16;15.23;;;7.63;;
72684;SDS011;61365;52.162;4.500;2022-10-31T04:45:43;14.38;;;8.13;;
72684;SDS011;61365;52.162;4.500;2022-10-31T04:48:09;12.57;;;7.80;;
72684;SDS011;61365;52.162;4.500;2022-10-31T04:50:35;14.35;;;7.15;;
72684;SDS011;61365;52.162;4.500;2022-10-31T04:53:02;12.98;;;7.07;;
72684;SDS011;61365;52.162;4.500;2022-10-31T04:55:28;10.88;;;7.15;;
72684;SDS011;61365;52.162;4.500;2022-10-31T04:57:54;13.40;;;8.45;;
72684;SDS011;61365;52.162;4.500;2022-10-31T05:00:21;12.27;;;7.18;;
72684;SDS011;61365;52.162;4.500;2022-10-31T05:02:49;15.23;;;7.15;;
72684;SDS011;61365;52.162;4.500;2022-10-31T05:05:18;12.07;;;7.53;;
72684;SDS011;61365;52.162;4.500;2022-10-31T05:07:49;13.32;;;7.82;;
72684;SDS011;61365;52.162;4.500;2022-10-31T05:10:17;14.30;;;8.77;;
72684;SDS011;61365;52.162;4.500;2022-10-31T05:12:54;14.30;;;8.75;;
72684;SDS011;61365;52.162;4.500;2022-10-31T05:15:24;16.20;;;8.60;;
72684;SDS011;61365;52.162;4.500;2022-10-31T05:17:52;15.52;;;10.07;;
72684;SDS011;61365;52.162;4.500;2022-10-31T05:20:21;14.60;;;8.73;;
72684;SDS011;61365;52.162;4.500;2022-10-31T05:22:52;16.40;;;9.57;;
72684;SDS011;61365;52.162;4.500;2022-10-31T05:25:21;14.90;;;8.20;;
72684;SDS011;61365;52.162;4.500;2022-10-31T05:27:52;14.82;;;8.63;;
72684;SDS011;61365;52.162;4.500;2022-10-31T05:30:20;17.77;;;9.65;;
72684;SDS011;61365;52.162;4.500;2022-10-31T05:32:53;19.65;;;11.75;;
72684;SDS011;61365;52.162;4.500;2022-10-31T05:35:21;21.50;;;11.45;;
72684;SDS011;61365;52.162;4.500;2022-10-31T05:37:54;18.75;;;11.18;;
72684;SDS011;61365;52.162;4.500;2022-10-31T05:40:21;16.45;;;9.88;;
72684;SDS011;61365;52.162;4.500;2022-10-31T05:42:50;20.75;;;12.18;;
72684;SDS011;61365;52.162;4.500;2022-10-31T05:45:18;18.85;;;10.68;;
72684;SDS011;61365;52.162;4.500;2022-10-31T05:47:55;25.42;;;13.98;;
72684;SDS011;61365;52.162;4.500;2022-10-31T05:50:25;26.00;;;14.25;;
72684;SDS011;61365;52.162;4.500;2022-10-31T05:53:01;30.85;;;15.95;;
72684;SDS011;61365;52.162;4.500;2022-10-31T05:55:31;26.67;;;15.05;;
72684;SDS011;61365;52.162;4.500;2022-10-31T05:57:58;22.02;;;14.27;;
72684;SDS011;61365;52.162;4.500;2022-10-31T06:00:24;22.73;;;14.57;;
72684;SDS011;61365;52.162;4.500;2022-10-31T06:03:02;31.90;;;17.10;;
72684;SDS011;61365;52.162;4.500;2022-10-31T06:05:31;29.83;;;16.48;;
72684;SDS011;61365;52.162;4.500;2022-10-31T06:07:59;23.75;;;14.48;;
72684;SDS011;61365;52.162;4.500;2022-10-31T06:10:25;24.15;;;14.75;;
72684;SDS011;61365;52.162;4.500;2022-10-31T06:12:52;24.30;;;15.25;;
72684;SDS011;61365;52.162;4.500;2022-10-31T06:15:19;23.20;;;14.48;;
72684;SDS011;61365;52.162;4.500;2022-10-31T06:17:45;24.20;;;15.25;;
72684;SDS011;61365;52.162;4.500;2022-10-31T06:20:11;21.58;;;13.80;;
72684;SDS011;61365;52.162;4.500;2022-10-31T06:22:38;27.90;;;14.40;;
72684;SDS011;61365;52.162;4.500;2022-10-31T06:25:04;26.92;;;15.32;;
72684;SDS011;61365;52.162;4.500;2022-10-31T06:27:31;28.92;;;15.23;;
72684;SDS011;61365;52.162;4.500;2022-10-31T06:29:57;31.80;;;16.52;;
72684;SDS011;61365;52.162;4.500;2022-10-31T06:32:23;24.80;;;14.63;;
72684;SDS011;61365;52.162;4.500;2022-10-31T06:34:49;26.80;;;16.20;;
72684;SDS011;61365;52.162;4.500;2022-10-31T06:37:16;25.80;;;14.65;;
72684;SDS011;61365;52.162;4.500;2022-10-31T06:39:42;31.40;;;17.25;;
72684;SDS011;61365;52.162;4.500;2022-10-31T06:42:09;27.15;;;15.75;;
72684;SDS011;61365;52.162;4.500;2022-10-31T06:44:35;25.83;;;17.38;;
72684;SDS011;61365;52.162;4.500;2022-10-31T06:47:01;30.20;;;16.77;;
72684;SDS011;61365;52.162;4.500;2022-10-31T06:49:28;32.35;;;18.08;;
72684;SDS011;61365;52.162;4.500;2022-10-31T06:51:54;29.08;;;17.98;;
72684;SDS011;61365;52.162;4.500;2022-10-31T06:54:20;27.20;;;16.65;;
72684;SDS011;61365;52.162;4.500;2022-10-31T06:56:47;30.02;;;17.48;;
72684;SDS011;61365;52.162;4.500;2022-10-31T06:59:14;25.60;;;16.60;;
72684;SDS011;61365;52.162;4.500;2022-10-31T07:01:41;30.70;;;18.35;;
72684;SDS011;61365;52.162;4.500;2022-10-31T07:04:09;30.38;;;17.60;;
72684;SDS011;61365;52.162;4.500;2022-10-31T07:06:37;30.58;;;17.55;;
72684;SDS011;61365;52.162;4.500;2022-10-31T07:09:04;30.45;;;16.75;;
72684;SDS011;61365;52.162;4.500;2022-10-31T07:11:31;34.22;;;19.75;;
72684;SDS011;61365;52.162;4.500;2022-10-31T07:13:57;26.10;;;17.83;;
72684;SDS011;61365;52.162;4.500;2022-10-31T07:16:24;32.08;;;18.38;;
72684;SDS011;61365;52.162;4.500;2022-10-31T07:18:50;45.10;;;21.95;;
72684;SDS011;61365;52.162;4.500;2022-10-31T07:21:16;33.05;;;19.73;;
72684;SDS011;61365;52.162;4.500;2022-10-31T07:23:42;41.28;;;19.10;;
72684;SDS011;61365;52.162;4.500;2022-10-31T07:26:09;38.00;;;20.27;;
72684;SDS011;61365;52.162;4.500;2022-10-31T07:28:36;37.20;;;18.60;;
72684;SDS011;61365;52.162;4.500;2022-10-31T07:31:02;34.65;;;19.75;;
72684;SDS011;61365;52.162;4.500;2022-10-31T07:33:28;36.08;;;18.92;;
72684;SDS011;61365;52.162;4.500;2022-10-31T07:35:54;33.15;;;18.92;;
72684;SDS011;61365;52.162;4.500;2022-10-31T07:38:21;32.50;;;17.17;;
72684;SDS011;61365;52.162;4.500;2022-10-31T07:40:51;32.72;;;15.88;;
72684;SDS011;61365;52.162;4.500;2022-10-31T07:43:18;29.98;;;16.05;;
72684;SDS011;61365;52.162;4.500;2022-10-31T07:45:51;35.42;;;17.00;;
72684;SDS011;61365;52.162;4.500;2022-10-31T07:48:19;26.15;;;16.55;;
72684;SDS011;61365;52.162;4.500;2022-10-31T07:50:45;29.92;;;15.95;;
72684;SDS011;61365;52.162;4.500;2022-10-31T07:53:12;28.40;;;17.23;;
72684;SDS011;61365;52.162;4.500;2022-10-31T07:55:40;30.00;;;16.70;;
72684;SDS011;61365;52.162;4.500;2022-10-31T07:58:09;32.05;;;15.40;;
72684;SDS011;61365;52.162;4.500;2022-10-31T08:00:41;39.25;;;18.02;;
72684;SDS011;61365;52.162;4.500;2022-10-31T08:03:11;26.35;;;15.55;;
72684;SDS011;61365;52.162;4.500;2022-10-31T08:05:43;27.48;;;16.15;;
72684;SDS011;61365;52.162;4.500;2022-10-31T08:08:11;26.20;;;15.45;;
72684;SDS011;61365;52.162;4.500;2022-10-31T08:10:39;22.55;;;13.93;;
72684;SDS011;61365;52.162;4.500;2022-10-31T08:13:07;23.08;;;13.52;;
72684;SDS011;61365;52.162;4.500;2022-10-31T08:15:36;28.30;;;15.20;;
72684;SDS011;61365;52.162;4.500;2022-10-31T08:18:06;27.98;;;15.30;;
72684;SDS011;61365;52.162;4.500;2022-10-31T08:20:37;28.38;;;15.93;;
72684;SDS011;61365;52.162;4.500;2022-10-31T08:23:04;25.75;;;15.55;;
72684;SDS011;61365;52.162;4.500;2022-10-31T08:25:32;27.50;;;15.38;;
72684;SDS011;61365;52.162;4.500;2022-10-31T08:28:00;34.28;;;17.38;;
72684;SDS011;61365;52.162;4.500;2022-10-31T08:30:28;28.13;;;15.20;;
72684;SDS011;61365;52.162;4.500;2022-10-31T08:33:00;31.10;;;16.60;;
72684;SDS011;61365;52.162;4.500;2022-10-31T08:35:30;29.15;;;16.27;;
72684;SDS011;61365;52.162;4.500;2022-10-31T08:37:58;34.45;;;18.27;;
72684;SDS011;61365;52.162;4.500;2022-10-31T08:40:26;33.30;;;18.38;;
72684;SDS011;61365;52.162;4.500;2022-10-31T08:42:58;36.78;;;18.55;;
72684;SDS011;61365;52.162;4.500;2022-10-31T08:45:39;32.00;;;17.67;;
72684;SDS011;61365;52.162;4.500;2022-10-31T08:48:09;44.47;;;20.73;;
72684;SDS011;61365;52.162;4.500;2022-10-31T08:50:38;40.13;;;19.85;;
72684;SDS011;61365;52.162;4.500;2022-10-31T08:53:10;38.28;;;19.25;;
72684;SDS011;61365;52.162;4.500;2022-10-31T08:55:40;35.22;;;18.85;;
72684;SDS011;61365;52.162;4.500;2022-10-31T08:58:12;34.90;;;19.85;;
72684;SDS011;61365;52.162;4.500;2022-10-31T09:00:42;52.85;;;22.10;;
72684;SDS011;61365;52.162;4.500;2022-10-31T09:03:11;46.75;;;22.95;;
72684;SDS011;61365;52.162;4.500;2022-10-31T09:05:41;47.28;;;22.00;;
72684;SDS011;61365;52.162;4.500;2022-10-31T09:08:07;42.33;;;20.85;;
72684;SDS011;61365;52.162;4.500;2022-10-31T09:10:35;42.72;;;20.98;;
72684;SDS011;61365;52.162;4.500;2022-10-31T09:13:06;38.42;;;20.30;;
72684;SDS011;61365;52.162;4.500;2022-10-31T09:15:38;43.88;;;20.65;;
72684;SDS011;61365;52.162;4.500;2022-10-31T09:18:07;39.53;;;21.80;;
72684;SDS011;61365;52.162;4.500;2022-10-31T09:20:35;37.42;;;20.15;;
72684;SDS011;61365;52.162;4.500;2022-10-31T09:23:10;30.50;;;19.08;;
72684;SDS011;61365;52.162;4.500;2022-10-31T09:25:42;32.35;;;19.10;;
72684;SDS011;61365;52.162;4.500;2022-10-31T09:28:11;30.25;;;18.92;;
72684;SDS011;61365;52.162;4.500;2022-10-31T09:30:42;32.67;;;19.40;;
72684;SDS011;61365;52.162;4.500;2022-10-31T09:33:11;29.27;;;17.45;;
72684;SDS011;61365;52.162;4.500;2022-10-31T09:35:39;35.63;;;20.33;;
72684;SDS011;61365;52.162;4.500;2022-10-31T09:38:11;28.95;;;18.40;;
72684;SDS011;61365;52.162;4.500;2022-10-31T09:40:42;30.92;;;17.92;;
72684;SDS011;61365;52.162;4.500;2022-10-31T09:52:34;27.52;;;17.10;;
72684;SDS011;61365;52.162;4.500;2022-10-31T09:58:14;34.70;;;16.77;;
72684;SDS011;61365;52.162;4.500;2022-10-31T10:00:50;26.17;;;16.20;;
72684;SDS011;61365;52.162;4.500;2022-10-31T10:03:32;28.15;;;15.63;;
72684;SDS011;61365;52.162;4.500;2022-10-31T10:06:21;28.48;;;15.60;;
72684;SDS011;61365;52.162;4.500;2022-10-31T10:08:53;22.42;;;14.85;;
72684;SDS011;61365;52.162;4.500;2022-10-31T10:11:24;27.05;;;16.02;;
72684;SDS011;61365;52.162;4.500;2022-10-31T10:14:18;23.65;;;13.80;;
72684;SDS011;61365;52.162;4.500;2022-10-31T10:26:21;32.30;;;17.67;;
72684;SDS011;61365;52.162;4.500;2022-10-31T10:29:01;31.52;;;18.05;;
72684;SDS011;61365;52.162;4.500;2022-10-31T10:31:47;28.13;;;16.83;;
72684;SDS011;61365;52.162;4.500;2022-10-31T10:34:19;26.52;;;15.88;;
72684;SDS011;61365;52.162;4.500;2022-10-31T10:36:58;27.02;;;15.70;;
72684;SDS011;61365;52.162;4.500;2022-10-31T10:39:33;27.63;;;15.30;;
72684;SDS011;61365;52.162;4.500;2022-10-31T10:42:13;29.42;;;15.38;;
72684;SDS011;61365;52.162;4.500;2022-10-31T10:45:06;28.23;;;16.67;;
72684;SDS011;61365;52.162;4.500;2022-10-31T10:48:44;33.22;;;17.00;;
72684;SDS011;61365;52.162;4.500;2022-10-31T10:51:19;26.42;;;15.43;;
72684;SDS011;61365;52.162;4.500;2022-10-31T10:56:55;28.33;;;15.95;;
72684;SDS011;61365;52.162;4.500;2022-10-31T10:59:48;32.45;;;16.90;;
72684;SDS011;61365;52.162;4.500;2022-10-31T11:02:16;25.65;;;16.70;;
72684;SDS011;61365;52.162;4.500;2022-10-31T11:04:51;30.52;;;16.15;;
72684;SDS011;61365;52.162;4.500;2022-10-31T11:07:21;28.80;;;17.05;;
72684;SDS011;61365;52.162;4.500;2022-10-31T11:09:48;27.60;;;16.73;;
72684;SDS011;61365;52.162;4.500;2022-10-31T11:12:22;35.28;;;18.23;;
72684;SDS011;61365;52.162;4.500;2022-10-31T11:14:59;31.90;;;17.88;;
72684;SDS011;61365;52.162;4.500;2022-10-31T11:17:42;33.65;;;17.20;;
72684;SDS011;61365;52.162;4.500;2022-10-31T11:23:15;31.65;;;17.70;;
72684;SDS011;61365;52.162;4.500;2022-10-31T11:26:05;30.75;;;18.42;;
72684;SDS011;61365;52.162;4.500;2022-10-31T11:28:44;32.40;;;18.15;;
72684;SDS011;61365;52.162;4.500;2022-10-31T11:31:23;34.70;;;18.23;;
72684;SDS011;61365;52.162;4.500;2022-10-31T11:34:01;28.90;;;16.85;;
72684;SDS011;61365;52.162;4.500;2022-10-31T11:36:33;35.42;;;17.92;;
72684;SDS011;61365;52.162;4.500;2022-10-31T11:39:05;31.48;;;18.02;;
72684;SDS011;61365;52.162;4.500;2022-10-31T11:41:50;32.42;;;17.40;;
72684;SDS011;61365;52.162;4.500;2022-10-31T11:44:23;32.83;;;17.40;;
72684;SDS011;61365;52.162;4.500;2022-10-31T11:46:55;36.13;;;18.40;;
72684;SDS011;61365;52.162;4.500;2022-10-31T11:51:56;31.13;;;16.20;;
72684;SDS011;61365;52.162;4.500;2022-10-31T11:54:31;28.15;;;16.02;;
72684;SDS011;61365;52.162;4.500;2022-10-31T11:59:58;31.42;;;15.52;;
72684;SDS011;61365;52.162;4.500;2022-10-31T12:02:31;34.22;;;16.67;;
72684;SDS011;61365;52.162;4.500;2022-10-31T12:05:01;40.75;;;18.35;;
72684;SDS011;61365;52.162;4.500;2022-10-31T12:07:48;31.38;;;16.52;;
72684;SDS011;61365;52.162;4.500;2022-10-31T12:10:15;34.38;;;17.38;;
72684;SDS011;61365;52.162;4.500;2022-10-31T12:15:35;28.85;;;16.15;;
72684;SDS011;61365;52.162;4.500;2022-10-31T12:18:22;32.83;;;17.95;;
72684;SDS011;61365;52.162;4.500;2022-10-31T12:21:22;36.00;;;17.48;;
72684;SDS011;61365;52.162;4.500;2022-10-31T12:23:57;29.60;;;16.30;;
72684;SDS011;61365;52.162;4.500;2022-10-31T12:38:33;34.40;;;19.17;;
72684;SDS011;61365;52.162;4.500;2022-10-31T12:47:24;34.97;;;18.77;;
72684;SDS011;61365;52.162;4.500;2022-10-31T13:04:57;37.67;;;21.13;;
72684;SDS011;61365;52.162;4.500;2022-10-31T13:12:38;46.83;;;23.33;;
72684;SDS011;61365;52.162;4.500;2022-10-31T13:15:18;42.55;;;23.60;;
72684;SDS011;61365;52.162;4.500;2022-10-31T13:17:51;48.73;;;24.47;;
72684;SDS011;61365;52.162;4.500;2022-10-31T13:20:28;44.10;;;23.25;;
72684;SDS011;61365;52.162;4.500;2022-10-31T13:23:05;49.03;;;24.17;;
72684;SDS011;61365;52.162;4.500;2022-10-31T13:26:01;43.45;;;23.38;;
72684;SDS011;61365;52.162;4.500;2022-10-31T13:28:43;46.17;;;22.50;;
72684;SDS011;61365;52.162;4.500;2022-10-31T13:31:19;43.80;;;23.50;;
72684;SDS011;61365;52.162;4.500;2022-10-31T13:33:48;44.95;;;21.90;;
72684;SDS011;61365;52.162;4.500;2022-10-31T13:39:32;42.50;;;23.40;;
72684;SDS011;61365;52.162;4.500;2022-10-31T13:45:22;44.50;;;24.45;;
72684;SDS011;61365;52.162;4.500;2022-10-31T13:48:32;46.60;;;23.85;;
72684;SDS011;61365;52.162;4.500;2022-10-31T13:50:56;50.35;;;25.45;;
72684;SDS011;61365;52.162;4.500;2022-10-31T13:53:42;50.70;;;25.58;;
72684;SDS011;61365;52.162;4.500;2022-10-31T13:56:23;53.75;;;25.25;;
72684;SDS011;61365;52.162;4.500;2022-10-31T13:59:03;50.95;;;25.40;;
72684;SDS011;61365;52.162;4.500;2022-10-31T14:01:36;44.50;;;24.70;;
72684;SDS011;61365;52.162;4.500;2022-10-31T14:07:12;49.67;;;25.75;;
72684;SDS011;61365;52.162;4.500;2022-10-31T14:12:45;51.67;;;26.30;;
72684;SDS011;61365;52.162;4.500;2022-10-31T14:22:44;53.38;;;28.63;;
72684;SDS011;61365;52.162;4.500;2022-10-31T14:31:00;50.47;;;28.65;;
72684;SDS011;61365;52.162;4.500;2022-10-31T14:33:28;60.13;;;29.40;;
72684;SDS011;61365;52.162;4.500;2022-10-31T14:36:00;49.30;;;27.63;;
72684;SDS011;61365;52.162;4.500;2022-10-31T14:42:30;60.72;;;29.75;;
72684;SDS011;61365;52.162;4.500;2022-10-31T14:50:52;64.13;;;29.27;;
72684;SDS011;61365;52.162;4.500;2022-10-31T14:53:24;58.88;;;29.23;;
72684;SDS011;61365;52.162;4.500;2022-10-31T14:55:57;55.92;;;28.63;;
72684;SDS011;61365;52.162;4.500;2022-10-31T14:58:37;54.35;;;28.25;;
72684;SDS011;61365;52.162;4.500;2022-10-31T15:01:23;57.03;;;28.25;;
72684;SDS011;61365;52.162;4.500;2022-10-31T15:04:05;48.42;;;26.88;;
72684;SDS011;61365;52.162;4.500;2022-10-31T15:06:45;58.88;;;28.15;;
72684;SDS011;61365;52.162;4.500;2022-10-31T15:09:20;50.35;;;26.08;;
72684;SDS011;61365;52.162;4.500;2022-10-31T15:11:59;60.88;;;28.88;;
72684;SDS011;61365;52.162;4.500;2022-10-31T15:17:08;60.67;;;28.58;;
72684;SDS011;61365;52.162;4.500;2022-10-31T15:19:37;54.28;;;27.45;;
72684;SDS011;61365;52.162;4.500;2022-10-31T15:22:04;58.63;;;28.38;;
72684;SDS011;61365;52.162;4.500;2022-10-31T15:24:36;57.85;;;28.17;;
72684;SDS011;61365;52.162;4.500;2022-10-31T15:27:09;56.25;;;28.13;;
72684;SDS011;61365;52.162;4.500;2022-10-31T15:29:50;52.08;;;28.13;;
72684;SDS011;61365;52.162;4.500;2022-10-31T15:32:24;55.95;;;26.95;;
72684;SDS011;61365;52.162;4.500;2022-10-31T15:34:55;54.70;;;29.10;;
72684;SDS011;61365;52.162;4.500;2022-10-31T15:37:23;59.20;;;28.17;;
72684;SDS011;61365;52.162;4.500;2022-10-31T15:39:51;49.10;;;24.30;;
72684;SDS011;61365;52.162;4.500;2022-10-31T15:42:33;60.20;;;27.35;;
72684;SDS011;61365;52.162;4.500;2022-10-31T15:47:36;49.80;;;25.40;;
72684;SDS011;61365;52.162;4.500;2022-10-31T15:50:04;55.97;;;27.48;;
72684;SDS011;61365;52.162;4.500;2022-10-31T15:52:46;57.78;;;25.27;;
72684;SDS011;61365;52.162;4.500;2022-10-31T15:55:19;52.63;;;26.83;;
72684;SDS011;61365;52.162;4.500;2022-10-31T15:57:52;60.20;;;27.08;;
72684;SDS011;61365;52.162;4.500;2022-10-31T16:00:31;59.15;;;27.30;;
72684;SDS011;61365;52.162;4.500;2022-10-31T16:05:43;59.42;;;27.67;;
72684;SDS011;61365;52.162;4.500;2022-10-31T16:08:22;54.38;;;26.25;;
72684;SDS011;61365;52.162;4.500;2022-10-31T16:13:36;53.17;;;27.02;;
72684;SDS011;61365;52.162;4.500;2022-10-31T16:16:17;54.38;;;27.15;;
72684;SDS011;61365;52.162;4.500;2022-10-31T16:18:45;60.47;;;26.95;;
72684;SDS011;61365;52.162;4.500;2022-10-31T16:21:14;53.80;;;26.73;;
72684;SDS011;61365;52.162;4.500;2022-10-31T16:23:44;52.45;;;25.48;;
72684;SDS011;61365;52.162;4.500;2022-10-31T16:26:17;54.95;;;26.15;;
72684;SDS011;61365;52.162;4.500;2022-10-31T16:28:51;59.30;;;26.15;;
72684;SDS011;61365;52.162;4.500;2022-10-31T16:34:20;62.00;;;26.55;;
72684;SDS011;61365;52.162;4.500;2022-10-31T16:36:48;56.13;;;25.48;;
72684;SDS011;61365;52.162;4.500;2022-10-31T16:39:14;53.33;;;26.33;;
72684;SDS011;61365;52.162;4.500;2022-10-31T16:41:44;53.92;;;26.45;;
72684;SDS011;61365;52.162;4.500;2022-10-31T16:47:07;56.63;;;26.77;;
72684;SDS011;61365;52.162;4.500;2022-10-31T16:49:40;53.15;;;25.70;;
72684;SDS011;61365;52.162;4.500;2022-10-31T16:52:08;54.38;;;25.90;;
72684;SDS011;61365;52.162;4.500;2022-10-31T16:54:35;56.88;;;28.02;;
72684;SDS011;61365;52.162;4.500;2022-10-31T16:57:02;57.95;;;26.58;;
72684;SDS011;61365;52.162;4.500;2022-10-31T16:59:31;59.83;;;26.42;;
72684;SDS011;61365;52.162;4.500;2022-10-31T17:02:01;55.42;;;26.80;;
72684;SDS011;61365;52.162;4.500;2022-10-31T17:04:29;56.63;;;26.45;;
72684;SDS011;61365;52.162;4.500;2022-10-31T17:06:56;63.10;;;26.90;;
72684;SDS011;61365;52.162;4.500;2022-10-31T17:09:22;51.72;;;26.55;;
72684;SDS011;61365;52.162;4.500;2022-10-31T17:11:49;58.90;;;27.52;;
72684;SDS011;61365;52.162;4.500;2022-10-31T17:14:19;56.03;;;25.48;;
72684;SDS011;61365;52.162;4.500;2022-10-31T17:16:46;63.95;;;26.45;;
72684;SDS011;61365;52.162;4.500;2022-10-31T17:19:13;61.00;;;28.15;;
72684;SDS011;61365;52.162;4.500;2022-10-31T17:21:39;59.63;;;26.90;;
72684;SDS011;61365;52.162;4.500;2022-10-31T17:24:08;53.70;;;26.70;;
72684;SDS011;61365;52.162;4.500;2022-10-31T17:26:38;59.70;;;26.07;;
72684;SDS011;61365;52.162;4.500;2022-10-31T17:29:06;49.45;;;25.77;;
72684;SDS011;61365;52.162;4.500;2022-10-31T17:31:33;51.78;;;27.00;;
72684;SDS011;61365;52.162;4.500;2022-10-31T17:34:01;57.88;;;27.33;;